createdAt,value
2018-12-23T00:00:08.526Z,8.30
2018-12-23T00:02:36.185Z,8.32
2018-12-23T00:05:11.329Z,8.33
2018-12-23T00:07:34.207Z,8.36
2018-12-23T00:10:03.933Z,8.32
2018-12-23T00:12:31.670Z,8.33
2018-12-23T00:15:01.081Z,8.32
2018-12-23T00:17:28.768Z,8.31
2018-12-23T00:19:56.370Z,8.39
2018-12-23T00:22:24.035Z,8.35
2018-12-23T00:24:53.289Z,8.37
2018-12-23T00:27:20.915Z,8.38
2018-12-23T00:29:48.474Z,8.37
2018-12-23T00:32:16.072Z,8.36
2018-12-23T00:34:43.832Z,8.36
2018-12-23T00:37:11.367Z,8.35
2018-12-23T00:39:38.940Z,8.37
2018-12-23T00:42:06.486Z,8.35
2018-12-23T00:44:34.054Z,8.32
2018-12-23T00:47:01.666Z,8.31
2018-12-23T00:49:29.284Z,8.31
2018-12-23T00:51:56.830Z,8.29
2018-12-23T00:54:24.422Z,8.32
2018-12-23T00:56:52.000Z,8.29
2018-12-23T00:59:19.602Z,8.30
2018-12-23T01:01:47.236Z,8.28
2018-12-23T01:04:14.884Z,8.27
2018-12-23T01:06:42.444Z,8.29
2018-12-23T01:09:10.186Z,8.28
2018-12-23T01:11:37.766Z,8.24
2018-12-23T01:14:05.342Z,8.25
2018-12-23T01:16:32.885Z,8.24
2018-12-23T01:19:00.451Z,8.20
2018-12-23T01:21:28.009Z,8.22
2018-12-23T01:23:55.613Z,8.25
2018-12-23T01:26:23.144Z,8.24
2018-12-23T01:28:50.723Z,8.22
2018-12-23T01:31:18.848Z,8.21
2018-12-23T01:33:46.510Z,8.20
2018-12-23T01:36:14.080Z,8.17
2018-12-23T01:38:41.652Z,8.14
2018-12-23T01:41:09.305Z,8.13
2018-12-23T01:43:36.867Z,8.15
2018-12-23T01:46:04.399Z,7.93
2018-12-23T01:48:31.959Z,8.16
2018-12-23T01:50:59.522Z,8.19
2018-12-23T01:53:27.092Z,8.19
2018-12-23T01:55:54.605Z,8.17
2018-12-23T01:58:22.185Z,8.18
2018-12-23T02:00:49.769Z,8.19
2018-12-23T02:03:17.372Z,8.19
2018-12-23T02:05:46.183Z,8.18
2018-12-23T02:08:14.048Z,8.20
2018-12-23T02:10:41.576Z,8.20
2018-12-23T02:13:09.163Z,8.18
2018-12-23T02:15:36.733Z,8.18
2018-12-23T02:18:04.491Z,8.14
2018-12-23T02:20:32.089Z,8.16
2018-12-23T02:22:59.718Z,8.20
2018-12-23T02:25:27.545Z,8.23
2018-12-23T02:27:55.106Z,8.25
2018-12-23T02:30:22.650Z,8.28
2018-12-23T02:32:50.227Z,8.26
2018-12-23T02:35:17.845Z,8.25
2018-12-23T02:37:45.414Z,8.25
2018-12-23T02:40:13.660Z,8.26
2018-12-23T02:42:41.170Z,8.23
2018-12-23T02:45:09.609Z,8.23
2018-12-23T02:47:37.154Z,8.19
2018-12-23T02:50:06.502Z,8.20
2018-12-23T02:52:34.054Z,8.18
2018-12-23T02:55:01.621Z,8.20
2018-12-23T02:57:29.184Z,8.19
2018-12-23T02:59:56.766Z,8.17
2018-12-23T03:02:24.339Z,8.21
2018-12-23T03:04:51.917Z,8.17
2018-12-23T03:07:19.467Z,8.20
2018-12-23T03:09:47.021Z,8.21
2018-12-23T03:12:14.577Z,8.18
2018-12-23T03:14:42.161Z,8.25
2018-12-23T03:17:09.695Z,8.19
2018-12-23T03:19:37.278Z,8.18
2018-12-23T03:22:04.888Z,8.18
2018-12-23T03:24:32.473Z,8.22
2018-12-23T03:27:00.051Z,8.18
2018-12-23T03:29:27.644Z,8.12
2018-12-23T03:31:55.225Z,8.12
2018-12-23T03:34:22.833Z,8.13
2018-12-23T03:36:50.370Z,8.12
2018-12-23T03:39:17.946Z,8.11
2018-12-23T03:41:45.529Z,8.13
2018-12-23T03:44:13.140Z,8.11
2018-12-23T03:46:40.704Z,8.14
2018-12-23T03:49:08.307Z,8.18
2018-12-23T03:51:35.846Z,8.14
2018-12-23T03:54:03.464Z,8.18
2018-12-23T03:56:30.979Z,8.18
2018-12-23T03:58:58.686Z,8.17
2018-12-23T04:01:26.299Z,8.12
2018-12-23T04:03:54.020Z,8.13
2018-12-23T04:06:24.812Z,8.11
2018-12-23T04:08:51.397Z,8.16
2018-12-23T04:11:18.996Z,8.10
2018-12-23T04:13:46.616Z,8.13
2018-12-23T04:16:14.256Z,8.17
2018-12-23T04:18:42.454Z,8.19
2018-12-23T04:21:11.308Z,8.13
2018-12-23T04:23:39.794Z,8.13
2018-12-23T04:26:08.112Z,8.17
2018-12-23T04:28:35.699Z,8.25
2018-12-23T04:31:03.293Z,8.24
2018-12-23T04:33:30.813Z,8.28
2018-12-23T04:35:58.508Z,8.22
2018-12-23T04:38:26.081Z,8.22
2018-12-23T04:40:53.631Z,8.22
2018-12-23T04:43:22.329Z,8.25
2018-12-23T04:45:49.996Z,8.16
2018-12-23T04:48:17.524Z,8.18
2018-12-23T04:50:45.094Z,8.13
2018-12-23T04:53:12.624Z,8.06
2018-12-23T04:55:40.210Z,8.07
2018-12-23T04:58:07.866Z,8.07
2018-12-23T05:00:35.412Z,8.07
2018-12-23T05:03:02.933Z,8.02
2018-12-23T05:05:30.493Z,8.02
2018-12-23T05:07:58.020Z,8.08
2018-12-23T05:10:25.573Z,8.10
2018-12-23T05:12:53.113Z,8.06
2018-12-23T05:15:20.685Z,8.08
2018-12-23T05:17:48.220Z,8.05
2018-12-23T05:20:15.761Z,8.05
2018-12-23T05:22:43.275Z,8.05
2018-12-23T05:25:10.850Z,8.13
2018-12-23T05:27:38.375Z,8.10
2018-12-23T05:30:05.953Z,8.12
2018-12-23T05:32:33.480Z,7.94
2018-12-23T05:35:01.043Z,8.10
2018-12-23T05:37:28.563Z,8.13
2018-12-23T05:39:56.121Z,8.10
2018-12-23T05:42:23.666Z,8.08
2018-12-23T05:44:51.200Z,8.08
2018-12-23T05:47:18.761Z,8.08
2018-12-23T05:49:46.281Z,8.09
2018-12-23T05:52:13.827Z,8.08
2018-12-23T05:54:41.359Z,8.10
2018-12-23T05:57:08.917Z,8.09
2018-12-23T05:59:36.453Z,8.12
2018-12-23T06:02:04.032Z,8.13
2018-12-23T06:04:31.560Z,8.12
2018-12-23T06:07:01.043Z,8.12
2018-12-23T06:09:28.662Z,8.09
2018-12-23T06:11:56.222Z,8.08
2018-12-23T06:14:23.748Z,8.06
2018-12-23T06:16:51.315Z,8.04
2018-12-23T06:19:18.850Z,8.07
2018-12-23T06:21:46.399Z,8.09
2018-12-23T06:24:13.921Z,8.07
2018-12-23T06:26:41.469Z,8.09
2018-12-23T06:29:09.004Z,8.10
2018-12-23T06:31:36.560Z,8.16
2018-12-23T06:34:04.079Z,8.10
2018-12-23T06:36:31.625Z,8.13
2018-12-23T06:38:59.141Z,8.19
2018-12-23T06:41:26.697Z,8.25
2018-12-23T06:43:54.223Z,8.18
2018-12-23T06:46:21.870Z,8.17
2018-12-23T06:48:49.405Z,8.13
2018-12-23T06:51:16.970Z,8.13
2018-12-23T06:53:44.512Z,8.15
2018-12-23T06:56:12.055Z,8.18
2018-12-23T06:58:39.603Z,8.14
2018-12-23T07:01:07.168Z,8.19
2018-12-23T07:03:34.700Z,8.18
2018-12-23T07:06:02.237Z,8.17
2018-12-23T07:08:29.798Z,8.17
2018-12-23T07:10:57.315Z,8.16
2018-12-23T07:13:24.894Z,8.20
2018-12-23T07:15:52.420Z,8.20
2018-12-23T07:18:19.968Z,8.15
2018-12-23T07:20:47.496Z,8.19
2018-12-23T07:23:15.039Z,8.20
2018-12-23T07:25:42.573Z,8.18
2018-12-23T07:28:10.131Z,8.21
2018-12-23T07:30:37.656Z,8.22
2018-12-23T07:33:05.211Z,8.23
2018-12-23T07:35:32.740Z,8.28
2018-12-23T07:38:00.304Z,8.32
2018-12-23T07:40:27.841Z,8.29
2018-12-23T07:42:55.520Z,8.28
2018-12-23T07:45:23.043Z,8.31
2018-12-23T07:47:50.599Z,8.30
2018-12-23T07:50:18.133Z,8.30
2018-12-23T07:52:45.681Z,8.31
2018-12-23T07:55:13.267Z,7.96
2018-12-23T07:57:41.077Z,8.30
2018-12-23T08:00:08.900Z,8.37
2018-12-23T08:02:36.449Z,8.40
2018-12-23T08:05:04.367Z,8.40
2018-12-23T08:07:36.120Z,8.37
2018-12-23T08:10:01.475Z,8.37
2018-12-23T08:12:29.035Z,8.39
2018-12-23T08:14:56.787Z,8.41
2018-12-23T08:17:24.414Z,8.44
2018-12-23T08:19:51.972Z,8.42
2018-12-23T08:22:19.487Z,8.44
2018-12-23T08:24:47.071Z,8.42
2018-12-23T08:27:14.610Z,8.43
2018-12-23T08:29:42.153Z,8.46
2018-12-23T08:32:09.844Z,8.40
2018-12-23T08:34:37.392Z,8.44
2018-12-23T08:37:04.921Z,8.45
2018-12-23T08:39:32.471Z,8.46
2018-12-23T08:41:59.993Z,8.49
2018-12-23T08:44:27.552Z,8.49
2018-12-23T08:46:55.089Z,8.49
2018-12-23T08:49:22.642Z,8.51
2018-12-23T08:51:50.168Z,8.55
2018-12-23T08:54:17.964Z,8.57
2018-12-23T08:56:46.101Z,8.56
2018-12-23T08:59:13.975Z,8.64
2018-12-23T09:01:42.651Z,8.64
2018-12-23T09:04:11.527Z,8.60
2018-12-23T09:06:39.435Z,8.59
2018-12-23T09:09:06.997Z,8.61
2018-12-23T09:11:42.675Z,8.65
2018-12-23T09:14:04.777Z,8.68
2018-12-23T09:16:32.345Z,8.71
2018-12-23T09:18:59.932Z,8.75
2018-12-23T09:21:29.078Z,8.76
2018-12-23T09:23:56.730Z,8.74
2018-12-23T09:26:24.354Z,8.74
2018-12-23T09:28:51.906Z,8.74
2018-12-23T09:31:19.503Z,8.74
2018-12-23T09:33:47.063Z,8.77
2018-12-23T09:36:14.634Z,8.81
2018-12-23T09:38:43.440Z,8.81
2018-12-23T09:41:11.026Z,8.87
2018-12-23T09:43:38.559Z,8.83
2018-12-23T09:46:06.339Z,8.83
2018-12-23T09:48:34.096Z,8.79
2018-12-23T09:51:02.044Z,8.85
2018-12-23T09:53:29.614Z,8.92
2018-12-23T09:56:02.100Z,8.90
2018-12-23T09:58:29.714Z,8.86
2018-12-23T10:00:57.345Z,8.83
2018-12-23T10:03:24.907Z,8.78
2018-12-23T10:05:52.493Z,8.77
2018-12-23T10:08:20.088Z,8.79
2018-12-23T10:10:47.707Z,8.76
2018-12-23T10:13:15.312Z,8.77
2018-12-23T10:15:42.922Z,8.72
2018-12-23T10:18:10.534Z,8.73
2018-12-23T10:20:38.099Z,8.74
2018-12-23T10:23:07.356Z,8.69
2018-12-23T10:25:35.041Z,8.74
2018-12-23T10:28:02.589Z,8.74
2018-12-23T10:30:30.183Z,8.71
2018-12-23T10:32:57.735Z,8.67
2018-12-23T10:35:25.330Z,8.61
2018-12-23T10:37:52.890Z,8.65
2018-12-23T10:40:20.457Z,8.67
2018-12-23T10:42:48.227Z,8.61
2018-12-23T10:45:15.819Z,8.69
2018-12-23T10:47:43.414Z,8.63
2018-12-23T10:50:11.050Z,8.66
2018-12-23T10:52:38.788Z,8.68
2018-12-23T10:55:06.465Z,8.68
2018-12-23T10:57:34.096Z,8.65
2018-12-23T11:00:01.723Z,8.59
2018-12-23T11:02:29.437Z,8.56
2018-12-23T11:04:57.016Z,8.81
2018-12-23T11:07:24.636Z,8.65
2018-12-23T11:09:52.236Z,8.61
2018-12-23T11:12:19.866Z,8.61
2018-12-23T11:14:47.460Z,8.59
2018-12-23T11:17:15.140Z,8.59
2018-12-23T11:19:42.713Z,8.58
2018-12-23T11:22:10.289Z,8.56
2018-12-23T11:24:37.928Z,8.54
2018-12-23T11:27:05.573Z,8.58
2018-12-23T11:29:33.158Z,8.60
2018-12-23T11:32:00.796Z,8.74
2018-12-23T11:34:28.369Z,8.62
2018-12-23T11:36:56.387Z,8.60
2018-12-23T11:39:24.018Z,8.58
2018-12-23T11:41:51.559Z,8.53
2018-12-23T11:44:19.131Z,8.60
2018-12-23T11:46:46.657Z,8.65
2018-12-23T11:49:14.213Z,8.77
2018-12-23T11:51:41.812Z,8.71
2018-12-23T11:54:09.357Z,8.64
2018-12-23T11:56:36.908Z,8.65
2018-12-23T11:59:04.473Z,8.65
2018-12-23T12:01:32.037Z,8.61
2018-12-23T12:03:59.598Z,8.64
2018-12-23T12:06:27.165Z,8.66
2018-12-23T12:08:54.935Z,8.59
2018-12-23T12:11:22.480Z,8.68
2018-12-23T12:13:50.072Z,8.72
2018-12-23T12:16:17.625Z,8.70
2018-12-23T12:18:45.236Z,8.73
2018-12-23T12:21:12.869Z,8.65
2018-12-23T12:23:40.424Z,8.59
2018-12-23T12:26:08.039Z,8.64
2018-12-23T12:28:35.718Z,8.70
2018-12-23T12:31:03.345Z,8.72
2018-12-23T12:33:30.953Z,8.68
2018-12-23T12:35:58.541Z,8.73
2018-12-23T12:38:26.324Z,8.68
2018-12-23T12:40:54.003Z,8.63
2018-12-23T12:43:21.584Z,8.58
2018-12-23T12:45:49.235Z,8.60
2018-12-23T12:48:16.982Z,8.69
2018-12-23T12:50:44.671Z,8.63
2018-12-23T12:53:12.441Z,8.62
2018-12-23T12:55:40.179Z,8.55
2018-12-23T12:58:07.860Z,8.61
2018-12-23T13:00:35.585Z,8.69
2018-12-23T13:03:03.186Z,8.67
2018-12-23T13:05:30.797Z,8.64
2018-12-23T13:07:58.456Z,8.72
2018-12-23T13:10:26.148Z,8.74
2018-12-23T13:12:53.749Z,8.68
2018-12-23T13:15:21.421Z,8.72
2018-12-23T13:17:49.153Z,8.76
2018-12-23T13:20:16.809Z,8.69
2018-12-23T13:22:44.513Z,8.66
2018-12-23T13:25:12.178Z,8.59
2018-12-23T13:27:39.884Z,8.69
2018-12-23T13:30:07.902Z,8.65
2018-12-23T13:32:35.724Z,8.66
2018-12-23T13:35:03.320Z,8.71
2018-12-23T13:37:31.011Z,8.72
2018-12-23T13:39:59.054Z,8.69
2018-12-23T13:42:35.266Z,8.65
2018-12-23T13:45:13.588Z,8.75
2018-12-23T13:47:50.618Z,8.76
2018-12-23T13:50:29.355Z,8.74
2018-12-23T13:53:03.898Z,8.79
2018-12-23T13:59:34.427Z,8.78
2018-12-23T14:02:11.970Z,8.80
2018-12-23T14:04:46.310Z,8.75
2018-12-23T14:07:29.971Z,8.81
2018-12-23T14:10:19.835Z,8.75
2018-12-23T14:12:48.339Z,8.79
2018-12-23T14:15:16.895Z,8.76
2018-12-23T14:17:45.847Z,8.76
2018-12-23T14:20:15.729Z,8.82
2018-12-23T14:22:44.293Z,8.86
2018-12-23T14:25:12.753Z,8.80
2018-12-23T14:27:41.260Z,8.87
2018-12-23T14:30:10.420Z,8.86
2018-12-23T14:32:41.623Z,8.82
2018-12-23T14:35:10.321Z,8.77
2018-12-23T14:37:39.134Z,8.86
2018-12-23T14:40:10.323Z,8.85
2018-12-23T14:42:39.392Z,8.89
2018-12-23T14:45:09.772Z,8.90
2018-12-23T14:47:40.380Z,8.90
2018-12-23T14:50:10.216Z,8.95
2018-12-23T14:52:38.756Z,8.96
2018-12-23T14:55:09.422Z,9.03
2018-12-23T14:57:38.515Z,9.31
2018-12-23T15:00:10.332Z,9.38
2018-12-23T15:02:39.022Z,9.50
2018-12-23T15:05:19.114Z,9.53
2018-12-23T15:07:50.114Z,9.57
2018-12-23T15:10:18.914Z,9.55
2018-12-23T15:12:49.508Z,9.60
2018-12-23T15:15:18.574Z,9.67
2018-12-23T15:17:51.801Z,9.75
2018-12-23T15:20:21.035Z,9.75
2018-12-23T15:22:51.583Z,9.91
2018-12-23T15:25:20.261Z,10.00
2018-12-23T15:27:49.782Z,10.03
2018-12-23T15:30:19.004Z,10.22
2018-12-23T15:32:48.252Z,10.32
2018-12-23T15:35:17.407Z,10.31
2018-12-23T15:37:46.167Z,10.33
2018-12-23T15:40:15.434Z,10.51
2018-12-23T15:42:46.444Z,10.49
2018-12-23T15:45:16.060Z,10.52
2018-12-23T15:47:44.788Z,10.63
2018-12-23T15:50:16.740Z,10.65
2018-12-23T15:52:45.789Z,10.78
2018-12-23T15:55:14.444Z,10.76
2018-12-23T15:57:43.898Z,10.80
2018-12-23T16:00:12.793Z,10.91
2018-12-23T16:02:41.412Z,10.91
2018-12-23T16:05:12.059Z,10.94
2018-12-23T16:07:41.379Z,10.91
2018-12-23T16:10:10.156Z,10.89
2018-12-23T16:12:38.985Z,11.00
2018-12-23T16:15:08.528Z,11.08
2018-12-23T16:17:38.388Z,11.05
2018-12-23T16:20:09.795Z,11.09
2018-12-23T16:22:43.160Z,11.09
2018-12-23T16:25:12.239Z,11.14
2018-12-23T16:27:44.852Z,11.14
2018-12-23T16:30:14.040Z,11.22
2018-12-23T16:32:42.891Z,11.22
2018-12-23T16:35:11.845Z,11.24
2018-12-23T16:37:42.483Z,11.27
2018-12-23T16:40:11.992Z,11.26
2018-12-23T16:42:41.901Z,11.27
2018-12-23T16:45:10.920Z,11.27
2018-12-23T16:47:39.605Z,11.28
2018-12-23T16:50:10.143Z,11.32
2018-12-23T16:52:39.348Z,11.32
2018-12-23T16:55:08.134Z,11.41
2018-12-23T16:57:37.152Z,11.38
2018-12-23T17:00:08.836Z,11.38
2018-12-23T17:02:38.043Z,11.37
2018-12-23T17:05:08.098Z,11.39
2018-12-23T17:07:39.612Z,11.45
2018-12-23T17:10:09.962Z,11.40
2018-12-23T17:12:40.891Z,11.49
2018-12-23T17:15:11.758Z,11.45
2018-12-23T17:17:41.597Z,11.54
2018-12-23T17:20:11.710Z,11.49
2018-12-23T17:22:44.908Z,11.49
2018-12-23T17:25:22.887Z,11.49
2018-12-23T17:27:59.299Z,11.51
2018-12-23T17:30:28.292Z,11.70
2018-12-23T17:33:00.626Z,11.72
2018-12-23T17:35:38.387Z,11.74
2018-12-23T17:38:09.933Z,11.65
2018-12-23T17:40:38.810Z,11.61
2018-12-23T17:43:13.353Z,11.62
2018-12-23T17:45:43.010Z,11.65
2018-12-23T17:48:22.062Z,11.65
2018-12-23T17:50:50.844Z,11.69
2018-12-23T17:53:20.145Z,11.70
2018-12-23T17:55:49.817Z,11.69
2018-12-23T17:58:19.218Z,11.68
2018-12-23T18:00:48.213Z,11.68
2018-12-23T18:03:17.111Z,11.72
2018-12-23T18:05:53.105Z,11.73
2018-12-23T18:08:23.830Z,11.73
2018-12-23T18:10:53.869Z,11.69
2018-12-23T18:13:31.444Z,11.74
2018-12-23T18:16:06.797Z,11.75
2018-12-23T18:18:38.482Z,11.76
2018-12-23T18:21:07.796Z,11.77
2018-12-23T18:23:36.578Z,11.83
2018-12-23T18:26:05.133Z,11.80
2018-12-23T18:28:33.752Z,11.81
2018-12-23T18:31:02.447Z,11.77
2018-12-23T18:33:31.097Z,11.82
2018-12-23T18:35:59.660Z,11.82
2018-12-23T18:38:28.116Z,11.89
2018-12-23T18:40:56.693Z,11.83
2018-12-23T18:43:25.221Z,11.86
2018-12-23T18:45:54.191Z,11.82
2018-12-23T18:48:22.655Z,11.80
2018-12-23T18:50:51.404Z,11.84
2018-12-23T18:53:20.031Z,11.91
2018-12-23T18:55:48.532Z,11.87
2018-12-23T18:58:17.008Z,11.85
2018-12-23T19:00:46.036Z,11.91
2018-12-23T19:03:14.505Z,11.89
2018-12-23T19:05:43.000Z,11.90
2018-12-23T19:08:11.619Z,11.93
2018-12-23T19:10:43.306Z,11.99
2018-12-23T19:13:23.882Z,11.95
2018-12-23T19:16:01.303Z,11.96
2018-12-23T19:18:49.504Z,11.88
2018-12-23T19:21:54.519Z,11.96
2018-12-23T19:24:26.718Z,11.88
2018-12-23T19:27:15.180Z,11.89
2018-12-23T19:29:58.711Z,11.95
2018-12-23T19:32:46.968Z,11.99
2018-12-23T19:35:18.664Z,11.99
2018-12-23T19:37:59.738Z,12.00
2018-12-23T19:41:03.997Z,11.99
2018-12-23T19:43:38.930Z,12.02
2018-12-23T19:46:20.148Z,12.00
2018-12-23T19:49:13.128Z,12.03
2018-12-23T19:51:53.613Z,12.09
2018-12-23T19:54:30.771Z,12.12
2018-12-23T19:57:17.614Z,12.08
2018-12-23T19:59:51.903Z,12.06
2018-12-23T20:02:32.205Z,12.01
2018-12-23T20:05:19.051Z,12.00
2018-12-23T20:08:12.207Z,11.97
2018-12-23T20:10:59.108Z,12.00
2018-12-23T20:13:35.502Z,11.98
2018-12-23T20:16:28.880Z,11.97
2018-12-23T20:19:08.754Z,11.99
2018-12-23T20:22:00.748Z,11.96
2018-12-23T20:24:44.694Z,11.98
2018-12-23T20:27:32.387Z,11.99
2018-12-23T20:30:10.104Z,11.98
2018-12-23T20:32:50.429Z,11.93
2018-12-23T20:35:35.351Z,11.92
2018-12-23T20:38:09.891Z,11.87
2018-12-23T20:40:53.508Z,11.89
2018-12-23T20:43:49.436Z,11.86
2018-12-23T20:46:30.298Z,11.92
2018-12-23T20:49:21.989Z,12.04
2018-12-23T20:52:05.676Z,12.06
2018-12-23T20:55:03.347Z,12.03
2018-12-23T20:57:55.643Z,12.15
2018-12-23T21:00:55.859Z,12.08
2018-12-23T21:03:42.560Z,11.91
2018-12-23T21:06:29.488Z,11.86
2018-12-23T21:09:19.495Z,11.84
2018-12-23T21:12:00.305Z,11.83
2018-12-23T21:14:47.057Z,11.81
2018-12-23T21:17:36.473Z,11.78
2018-12-23T21:20:17.425Z,11.78
2018-12-23T21:22:58.331Z,11.71
2018-12-23T21:25:47.547Z,11.72
2018-12-23T21:28:22.235Z,11.70
2018-12-23T21:31:19.481Z,11.69
2018-12-23T21:34:18.359Z,11.82
2018-12-23T21:36:56.010Z,11.78
2018-12-23T21:39:51.727Z,11.79
2018-12-23T21:42:32.474Z,11.82
2018-12-23T21:45:21.657Z,11.84
2018-12-23T21:48:05.293Z,11.87
2018-12-23T21:50:42.833Z,11.84
2018-12-23T21:53:44.512Z,11.90
2018-12-23T21:56:50.897Z,11.88
2018-12-23T21:59:25.484Z,11.98
2018-12-23T22:02:16.522Z,11.86
2018-12-23T22:04:57.212Z,11.91
2018-12-23T22:07:49.866Z,11.99
2018-12-23T22:10:30.439Z,11.90
2018-12-23T22:13:24.115Z,11.83
2018-12-23T22:15:52.945Z,11.83
2018-12-23T22:18:21.656Z,12.00
2018-12-23T22:20:59.240Z,11.97
2018-12-23T22:23:29.120Z,11.89
2018-12-23T22:25:57.777Z,11.91
2018-12-23T22:28:27.951Z,11.87
2018-12-23T22:30:56.792Z,11.80
2018-12-23T22:33:29.410Z,11.80
2018-12-23T22:35:58.349Z,11.82
2018-12-23T22:38:26.809Z,11.77
2018-12-23T22:40:55.388Z,11.78
2018-12-23T22:43:24.128Z,11.97
2018-12-23T22:45:53.515Z,11.89
2018-12-23T22:48:22.047Z,11.92
2018-12-23T22:50:52.592Z,11.88
2018-12-23T22:53:22.071Z,11.84
2018-12-23T22:55:50.892Z,11.91
2018-12-23T22:58:19.455Z,11.95
2018-12-23T23:00:48.463Z,11.94
2018-12-23T23:03:17.075Z,11.98
2018-12-23T23:05:48.891Z,11.95
2018-12-23T23:08:18.254Z,11.89
2018-12-23T23:10:49.594Z,12.00
2018-12-23T23:13:19.032Z,12.01
2018-12-23T23:15:47.807Z,11.96
2018-12-23T23:18:17.187Z,12.05
2018-12-23T23:20:46.077Z,12.05
2018-12-23T23:23:15.194Z,12.05
2018-12-23T23:25:44.363Z,12.09
2018-12-23T23:28:15.476Z,12.06
2018-12-23T23:30:44.584Z,12.05
2018-12-23T23:33:15.480Z,11.98
2018-12-23T23:35:44.417Z,12.00
2018-12-23T23:38:14.396Z,11.97
2018-12-23T23:40:44.042Z,12.07
2018-12-23T23:43:14.872Z,12.08
2018-12-23T23:45:43.669Z,12.01
2018-12-23T23:48:12.297Z,12.11
2018-12-23T23:50:40.772Z,12.04
2018-12-23T23:53:10.039Z,12.17
2018-12-23T23:55:40.231Z,12.15
2018-12-23T23:58:10.954Z,12.05
